Terminal Aerodrome Forecast
Issued by NWS

Home | Current Version | Previous Version | Text Only | Print | Product List | Glossary On
Versions: 1 2 3 4 5 6 7 8 9 10 11 12 13 14 15 16 17 18 19 20 21 22 23 24 25 26
000
FTUS41 KCTP 120348 AAB
TAFJST
TAF AMD
KJST 120348Z 1204/1224 15009KT P6SM BKN050
     FM120800 16005KT P6SM OVC025
     FM120900 21010KT P6SM OVC015
     FM121200 26014G21KT 1/2SM SN FG OVC003=

USA.gov is the U.S. government's official web portal to all federal, state and local government web resources and services.